sensor_id;sensor_type;location;lat;lon;timestamp;temperature;humidity
61016;DHT22;46902;52.920;6.536;2023-10-09T00:00:10;14.50;99.90
61016;DHT22;46902;52.920;6.536;2023-10-09T00:02:54;14.50;99.90
61016;DHT22;46902;52.920;6.536;2023-10-09T00:05:20;14.50;99.90
61016;DHT22;46902;52.920;6.536;2023-10-09T00:07:49;14.50;99.90
61016;DHT22;46902;52.920;6.536;2023-10-09T00:10:21;14.50;99.90
61016;DHT22;46902;52.920;6.536;2023-10-09T00:12:47;14.50;99.90
61016;DHT22;46902;52.920;6.536;2023-10-09T00:15:15;14.50;99.90
61016;DHT22;46902;52.920;6.536;2023-10-09T00:17:44;14.50;99.90
61016;DHT22;46902;52.920;6.536;2023-10-09T00:20:13;14.50;99.90
61016;DHT22;46902;52.920;6.536;2023-10-09T00:22:47;14.50;99.90
61016;DHT22;46902;52.920;6.536;2023-10-09T00:25:13;14.50;99.90
61016;DHT22;46902;52.920;6.536;2023-10-09T00:27:47;14.50;99.90
61016;DHT22;46902;52.920;6.536;2023-10-09T00:30:15;14.40;99.90
61016;DHT22;46902;52.920;6.536;2023-10-09T00:32:46;14.50;99.90
61016;DHT22;46902;52.920;6.536;2023-10-09T00:35:36;14.40;99.90
61016;DHT22;46902;52.920;6.536;2023-10-09T00:38:07;14.40;99.90
61016;DHT22;46902;52.920;6.536;2023-10-09T00:40:46;14.40;99.90
61016;DHT22;46902;52.920;6.536;2023-10-09T00:43:16;14.30;99.90
61016;DHT22;46902;52.920;6.536;2023-10-09T00:45:44;14.30;99.90
61016;DHT22;46902;52.920;6.536;2023-10-09T00:48:11;14.30;99.90
61016;DHT22;46902;52.920;6.536;2023-10-09T00:50:40;14.40;99.90
61016;DHT22;46902;52.920;6.536;2023-10-09T00:53:13;14.40;99.90
61016;DHT22;46902;52.920;6.536;2023-10-09T00:55:44;14.40;99.90
61016;DHT22;46902;52.920;6.536;2023-10-09T00:58:21;14.40;99.90
61016;DHT22;46902;52.920;6.536;2023-10-09T01:00:53;14.40;99.90
61016;DHT22;46902;52.920;6.536;2023-10-09T01:03:19;14.40;99.90
61016;DHT22;46902;52.920;6.536;2023-10-09T01:05:56;14.40;99.90
61016;DHT22;46902;52.920;6.536;2023-10-09T01:08:39;14.40;99.90
61016;DHT22;46902;52.920;6.536;2023-10-09T01:11:11;14.30;99.90
61016;DHT22;46902;52.920;6.536;2023-10-09T01:13:45;14.30;99.90
61016;DHT22;46902;52.920;6.536;2023-10-09T01:16:15;14.30;99.90
61016;DHT22;46902;52.920;6.536;2023-10-09T01:18:42;14.30;99.90
61016;DHT22;46902;52.920;6.536;2023-10-09T01:21:10;14.30;99.90
61016;DHT22;46902;52.920;6.536;2023-10-09T01:23:43;14.30;99.90
61016;DHT22;46902;52.920;6.536;2023-10-09T01:26:27;14.20;99.90
61016;DHT22;46902;52.920;6.536;2023-10-09T01:28:58;14.30;99.90
61016;DHT22;46902;52.920;6.536;2023-10-09T01:31:25;14.20;99.90
61016;DHT22;46902;52.920;6.536;2023-10-09T01:33:52;14.20;99.90
61016;DHT22;46902;52.920;6.536;2023-10-09T01:36:25;14.30;99.90
61016;DHT22;46902;52.920;6.536;2023-10-09T01:39:01;14.20;99.90
61016;DHT22;46902;52.920;6.536;2023-10-09T01:41:50;14.20;99.90
61016;DHT22;46902;52.920;6.536;2023-10-09T01:44:24;14.20;99.90
61016;DHT22;46902;52.920;6.536;2023-10-09T01:46:52;14.20;99.90
61016;DHT22;46902;52.920;6.536;2023-10-09T01:49:20;14.10;99.90
61016;DHT22;46902;52.920;6.536;2023-10-09T01:51:58;14.10;99.90
61016;DHT22;46902;52.920;6.536;2023-10-09T01:54:26;14.10;99.90
61016;DHT22;46902;52.920;6.536;2023-10-09T01:57:08;14.10;99.90
61016;DHT22;46902;52.920;6.536;2023-10-09T01:59:38;14.10;99.90
61016;DHT22;46902;52.920;6.536;2023-10-09T02:02:11;14.10;99.90
61016;DHT22;46902;52.920;6.536;2023-10-09T02:05:05;14.10;99.90
61016;DHT22;46902;52.920;6.536;2023-10-09T02:07:35;14.10;99.90
61016;DHT22;46902;52.920;6.536;2023-10-09T02:10:14;14.10;99.90
61016;DHT22;46902;52.920;6.536;2023-10-09T02:13:05;14.20;99.90
61016;DHT22;46902;52.920;6.536;2023-10-09T02:15:33;14.20;99.90
61016;DHT22;46902;52.920;6.536;2023-10-09T02:18:25;14.20;99.90
61016;DHT22;46902;52.920;6.536;2023-10-09T02:23:34;14.20;99.90
61016;DHT22;46902;52.920;6.536;2023-10-09T02:26:17;14.20;99.90
61016;DHT22;46902;52.920;6.536;2023-10-09T02:28:50;14.20;99.90
61016;DHT22;46902;52.920;6.536;2023-10-09T02:31:39;14.20;99.90
61016;DHT22;46902;52.920;6.536;2023-10-09T02:34:17;14.20;99.90
61016;DHT22;46902;52.920;6.536;2023-10-09T02:36:47;14.20;99.90
61016;DHT22;46902;52.920;6.536;2023-10-09T02:39:24;14.20;99.90
61016;DHT22;46902;52.920;6.536;2023-10-09T02:41:54;14.20;99.90
61016;DHT22;46902;52.920;6.536;2023-10-09T02:44:26;14.20;99.90
61016;DHT22;46902;52.920;6.536;2023-10-09T02:46:52;14.20;99.90
61016;DHT22;46902;52.920;6.536;2023-10-09T02:49:23;14.20;99.90
61016;DHT22;46902;52.920;6.536;2023-10-09T02:51:49;14.30;99.90
61016;DHT22;46902;52.920;6.536;2023-10-09T02:54:18;14.20;99.90
61016;DHT22;46902;52.920;6.536;2023-10-09T02:56:52;14.30;99.90
61016;DHT22;46902;52.920;6.536;2023-10-09T02:59:23;14.30;99.90
61016;DHT22;46902;52.920;6.536;2023-10-09T03:01:49;14.20;99.90
61016;DHT22;46902;52.920;6.536;2023-10-09T03:04:18;14.20;99.90
61016;DHT22;46902;52.920;6.536;2023-10-09T03:06:45;14.30;99.90
61016;DHT22;46902;52.920;6.536;2023-10-09T03:09:19;14.30;99.90
61016;DHT22;46902;52.920;6.536;2023-10-09T03:11:53;14.30;99.90
61016;DHT22;46902;52.920;6.536;2023-10-09T03:14:22;14.30;99.90
61016;DHT22;46902;52.920;6.536;2023-10-09T03:16:55;14.30;99.90
61016;DHT22;46902;52.920;6.536;2023-10-09T03:19:26;14.30;99.90
61016;DHT22;46902;52.920;6.536;2023-10-09T03:21:52;14.30;99.90
61016;DHT22;46902;52.920;6.536;2023-10-09T03:24:17;14.20;99.90
61016;DHT22;46902;52.920;6.536;2023-10-09T03:26:45;14.30;99.90
61016;DHT22;46902;52.920;6.536;2023-10-09T03:29:11;14.30;99.90
61016;DHT22;46902;52.920;6.536;2023-10-09T03:31:37;14.30;99.90
61016;DHT22;46902;52.920;6.536;2023-10-09T03:34:06;14.30;99.90
61016;DHT22;46902;52.920;6.536;2023-10-09T03:36:34;14.40;99.90
61016;DHT22;46902;52.920;6.536;2023-10-09T03:39:04;14.40;99.90
61016;DHT22;46902;52.920;6.536;2023-10-09T03:41:44;14.40;99.90
61016;DHT22;46902;52.920;6.536;2023-10-09T03:44:13;14.50;99.90
61016;DHT22;46902;52.920;6.536;2023-10-09T03:46:39;14.40;99.90
61016;DHT22;46902;52.920;6.536;2023-10-09T03:49:09;14.50;99.90
61016;DHT22;46902;52.920;6.536;2023-10-09T03:51:37;14.50;99.90
61016;DHT22;46902;52.920;6.536;2023-10-09T03:54:04;14.50;99.90
61016;DHT22;46902;52.920;6.536;2023-10-09T03:56:33;14.50;99.90
61016;DHT22;46902;52.920;6.536;2023-10-09T03:58:59;14.60;99.90
61016;DHT22;46902;52.920;6.536;2023-10-09T04:01:25;14.70;99.90
61016;DHT22;46902;52.920;6.536;2023-10-09T04:03:58;14.70;99.90
61016;DHT22;46902;52.920;6.536;2023-10-09T04:06:29;14.70;99.90
61016;DHT22;46902;52.920;6.536;2023-10-09T04:09:08;14.60;99.90
61016;DHT22;46902;52.920;6.536;2023-10-09T04:11:50;14.70;99.90
61016;DHT22;46902;52.920;6.536;2023-10-09T04:14:34;14.70;99.90
61016;DHT22;46902;52.920;6.536;2023-10-09T04:17:00;14.80;99.90
61016;DHT22;46902;52.920;6.536;2023-10-09T04:19:52;14.80;99.90
61016;DHT22;46902;52.920;6.536;2023-10-09T04:22:37;14.80;99.90
61016;DHT22;46902;52.920;6.536;2023-10-09T04:25:21;14.70;99.90
61016;DHT22;46902;52.920;6.536;2023-10-09T04:27:55;14.80;99.90
61016;DHT22;46902;52.920;6.536;2023-10-09T04:30:40;14.80;99.90
61016;DHT22;46902;52.920;6.536;2023-10-09T04:33:06;14.90;99.90
61016;DHT22;46902;52.920;6.536;2023-10-09T04:35:37;14.90;99.90
61016;DHT22;46902;52.920;6.536;2023-10-09T04:38:03;14.90;99.90
61016;DHT22;46902;52.920;6.536;2023-10-09T04:40:31;15.00;99.90
61016;DHT22;46902;52.920;6.536;2023-10-09T04:43:03;15.00;99.90
61016;DHT22;46902;52.920;6.536;2023-10-09T04:45:38;15.00;99.90
61016;DHT22;46902;52.920;6.536;2023-10-09T04:48:07;15.10;99.90
61016;DHT22;46902;52.920;6.536;2023-10-09T04:50:33;15.10;99.90
61016;DHT22;46902;52.920;6.536;2023-10-09T04:53:02;15.20;99.90
61016;DHT22;46902;52.920;6.536;2023-10-09T04:55:51;15.10;99.90
61016;DHT22;46902;52.920;6.536;2023-10-09T04:58:21;15.20;99.90
61016;DHT22;46902;52.920;6.536;2023-10-09T05:00:50;15.30;99.90
61016;DHT22;46902;52.920;6.536;2023-10-09T05:03:25;15.30;99.90
61016;DHT22;46902;52.920;6.536;2023-10-09T05:05:55;15.40;99.90
61016;DHT22;46902;52.920;6.536;2023-10-09T05:08:24;15.30;99.90
61016;DHT22;46902;52.920;6.536;2023-10-09T05:10:57;15.40;99.90
61016;DHT22;46902;52.920;6.536;2023-10-09T05:13:30;15.40;99.90
61016;DHT22;46902;52.920;6.536;2023-10-09T05:16:16;15.40;99.90
61016;DHT22;46902;52.920;6.536;2023-10-09T05:18:51;15.50;99.90
61016;DHT22;46902;52.920;6.536;2023-10-09T05:21:46;15.60;99.90
61016;DHT22;46902;52.920;6.536;2023-10-09T05:24:13;15.50;99.90
61016;DHT22;46902;52.920;6.536;2023-10-09T05:26:50;15.60;99.90
61016;DHT22;46902;52.920;6.536;2023-10-09T05:29:20;15.60;99.90
61016;DHT22;46902;52.920;6.536;2023-10-09T05:31:58;15.60;99.90
61016;DHT22;46902;52.920;6.536;2023-10-09T05:34:43;15.60;99.90
61016;DHT22;46902;52.920;6.536;2023-10-09T05:37:25;15.60;99.90
61016;DHT22;46902;52.920;6.536;2023-10-09T05:39:55;15.70;99.90
61016;DHT22;46902;52.920;6.536;2023-10-09T05:42:28;15.70;99.90
61016;DHT22;46902;52.920;6.536;2023-10-09T05:45:15;15.70;99.90
61016;DHT22;46902;52.920;6.536;2023-10-09T05:47:51;15.70;99.90
61016;DHT22;46902;52.920;6.536;2023-10-09T05:50:29;15.80;99.90
61016;DHT22;46902;52.920;6.536;2023-10-09T05:52:56;15.70;99.90
61016;DHT22;46902;52.920;6.536;2023-10-09T05:55:26;15.90;99.90
61016;DHT22;46902;52.920;6.536;2023-10-09T05:58:10;15.70;99.90
61016;DHT22;46902;52.920;6.536;2023-10-09T06:00:54;15.80;99.90
61016;DHT22;46902;52.920;6.536;2023-10-09T06:03:38;15.80;99.90
61016;DHT22;46902;52.920;6.536;2023-10-09T06:06:23;15.80;99.90
61016;DHT22;46902;52.920;6.536;2023-10-09T06:09:13;15.90;99.90
61016;DHT22;46902;52.920;6.536;2023-10-09T06:11:39;15.80;99.90
61016;DHT22;46902;52.920;6.536;2023-10-09T06:14:05;15.80;99.90
61016;DHT22;46902;52.920;6.536;2023-10-09T06:16:34;15.90;99.90
61016;DHT22;46902;52.920;6.536;2023-10-09T06:19:19;15.90;99.90
61016;DHT22;46902;52.920;6.536;2023-10-09T06:21:45;16.00;99.90
61016;DHT22;46902;52.920;6.536;2023-10-09T06:24:29;16.00;99.90
61016;DHT22;46902;52.920;6.536;2023-10-09T06:27:11;16.00;99.90
61016;DHT22;46902;52.920;6.536;2023-10-09T06:29:49;16.00;99.90
61016;DHT22;46902;52.920;6.536;2023-10-09T06:32:16;15.90;99.90
61016;DHT22;46902;52.920;6.536;2023-10-09T06:34:45;15.90;99.90
61016;DHT22;46902;52.920;6.536;2023-10-09T06:37:14;16.10;99.90
61016;DHT22;46902;52.920;6.536;2023-10-09T06:39:43;16.00;99.90
61016;DHT22;46902;52.920;6.536;2023-10-09T06:42:22;16.10;99.90
61016;DHT22;46902;52.920;6.536;2023-10-09T06:45:03;16.10;99.90
61016;DHT22;46902;52.920;6.536;2023-10-09T06:47:35;16.10;99.90
61016;DHT22;46902;52.920;6.536;2023-10-09T06:50:09;16.10;99.90
61016;DHT22;46902;52.920;6.536;2023-10-09T06:52:49;16.10;99.90
61016;DHT22;46902;52.920;6.536;2023-10-09T06:55:45;16.10;99.90
61016;DHT22;46902;52.920;6.536;2023-10-09T06:58:30;16.10;99.90
61016;DHT22;46902;52.920;6.536;2023-10-09T07:01:07;16.10;99.90
61016;DHT22;46902;52.920;6.536;2023-10-09T07:03:50;16.10;99.90
61016;DHT22;46902;52.920;6.536;2023-10-09T07:06:20;16.10;99.90
61016;DHT22;46902;52.920;6.536;2023-10-09T07:08:58;16.20;99.90
61016;DHT22;46902;52.920;6.536;2023-10-09T07:11:35;16.20;99.90
61016;DHT22;46902;52.920;6.536;2023-10-09T07:17:01;16.20;99.90
61016;DHT22;46902;52.920;6.536;2023-10-09T07:19:27;16.20;99.90
61016;DHT22;46902;52.920;6.536;2023-10-09T07:22:02;16.30;99.90
61016;DHT22;46902;52.920;6.536;2023-10-09T07:24:31;16.20;99.90
61016;DHT22;46902;52.920;6.536;2023-10-09T07:27:11;16.30;99.90
61016;DHT22;46902;52.920;6.536;2023-10-09T07:29:40;16.20;99.90
61016;DHT22;46902;52.920;6.536;2023-10-09T07:32:18;16.30;99.90
61016;DHT22;46902;52.920;6.536;2023-10-09T07:34:50;16.30;99.90
61016;DHT22;46902;52.920;6.536;2023-10-09T07:37:23;16.30;99.90
61016;DHT22;46902;52.920;6.536;2023-10-09T07:39:50;16.40;99.90
61016;DHT22;46902;52.920;6.536;2023-10-09T07:42:23;16.30;99.90
61016;DHT22;46902;52.920;6.536;2023-10-09T07:44:59;16.30;99.90
61016;DHT22;46902;52.920;6.536;2023-10-09T07:47:37;16.40;99.90
61016;DHT22;46902;52.920;6.536;2023-10-09T07:50:27;16.30;99.90
61016;DHT22;46902;52.920;6.536;2023-10-09T07:53:05;16.30;99.90
61016;DHT22;46902;52.920;6.536;2023-10-09T07:55:49;16.30;99.90
61016;DHT22;46902;52.920;6.536;2023-10-09T07:58:24;16.30;99.90
61016;DHT22;46902;52.920;6.536;2023-10-09T08:00:56;16.30;99.90
61016;DHT22;46902;52.920;6.536;2023-10-09T08:03:35;16.40;99.90
61016;DHT22;46902;52.920;6.536;2023-10-09T08:06:01;16.50;99.90
61016;DHT22;46902;52.920;6.536;2023-10-09T08:08:46;16.50;99.90
61016;DHT22;46902;52.920;6.536;2023-10-09T08:11:31;16.40;99.90
61016;DHT22;46902;52.920;6.536;2023-10-09T08:14:19;16.50;99.90
61016;DHT22;46902;52.920;6.536;2023-10-09T08:17:00;16.50;99.90
61016;DHT22;46902;52.920;6.536;2023-10-09T08:19:50;16.50;99.90
61016;DHT22;46902;52.920;6.536;2023-10-09T08:24:48;16.50;99.90
61016;DHT22;46902;52.920;6.536;2023-10-09T08:27:27;16.60;99.90
61016;DHT22;46902;52.920;6.536;2023-10-09T08:30:12;16.50;99.90
61016;DHT22;46902;52.920;6.536;2023-10-09T08:32:38;16.50;99.90
61016;DHT22;46902;52.920;6.536;2023-10-09T08:35:09;16.50;99.90
61016;DHT22;46902;52.920;6.536;2023-10-09T08:37:53;16.40;99.90
61016;DHT22;46902;52.920;6.536;2023-10-09T08:40:20;16.40;99.90
61016;DHT22;46902;52.920;6.536;2023-10-09T08:42:52;16.50;99.90
61016;DHT22;46902;52.920;6.536;2023-10-09T08:45:21;16.50;99.90
61016;DHT22;46902;52.920;6.536;2023-10-09T08:47:52;16.40;99.90
61016;DHT22;46902;52.920;6.536;2023-10-09T08:50:19;16.30;99.90
61016;DHT22;46902;52.920;6.536;2023-10-09T08:52:47;16.40;99.90
61016;DHT22;46902;52.920;6.536;2023-10-09T08:55:14;16.40;99.90
61016;DHT22;46902;52.920;6.536;2023-10-09T08:57:45;16.40;99.90
61016;DHT22;46902;52.920;6.536;2023-10-09T09:00:20;16.40;99.90
61016;DHT22;46902;52.920;6.536;2023-10-09T09:02:53;16.40;99.90
61016;DHT22;46902;52.920;6.536;2023-10-09T09:05:22;16.50;99.90
61016;DHT22;46902;52.920;6.536;2023-10-09T09:07:49;16.50;99.90
61016;DHT22;46902;52.920;6.536;2023-10-09T09:10:15;16.40;99.90
61016;DHT22;46902;52.920;6.536;2023-10-09T09:12:47;16.40;99.90
61016;DHT22;46902;52.920;6.536;2023-10-09T09:15:19;16.50;99.90
61016;DHT22;46902;52.920;6.536;2023-10-09T09:17:46;16.40;99.90
61016;DHT22;46902;52.920;6.536;2023-10-09T09:20:38;16.40;99.90
61016;DHT22;46902;52.920;6.536;2023-10-09T09:23:11;16.40;99.90
61016;DHT22;46902;52.920;6.536;2023-10-09T09:25:46;16.50;99.90
61016;DHT22;46902;52.920;6.536;2023-10-09T09:28:14;16.60;99.90
61016;DHT22;46902;52.920;6.536;2023-10-09T09:30:45;16.50;99.90
61016;DHT22;46902;52.920;6.536;2023-10-09T09:33:23;16.60;99.90
61016;DHT22;46902;52.920;6.536;2023-10-09T09:36:05;16.50;99.90
61016;DHT22;46902;52.920;6.536;2023-10-09T09:38:33;16.60;99.90
61016;DHT22;46902;52.920;6.536;2023-10-09T09:41:13;16.60;99.90
61016;DHT22;46902;52.920;6.536;2023-10-09T09:43:54;16.70;99.90
61016;DHT22;46902;52.920;6.536;2023-10-09T09:46:27;16.70;99.90
61016;DHT22;46902;52.920;6.536;2023-10-09T09:49:03;16.60;99.90
61016;DHT22;46902;52.920;6.536;2023-10-09T09:51:32;16.60;99.90
61016;DHT22;46902;52.920;6.536;2023-10-09T09:53:57;16.70;99.90
61016;DHT22;46902;52.920;6.536;2023-10-09T09:56:29;16.80;99.90
61016;DHT22;46902;52.920;6.536;2023-10-09T09:59:02;16.90;99.90
61016;DHT22;46902;52.920;6.536;2023-10-09T10:01:33;16.70;99.90
61016;DHT22;46902;52.920;6.536;2023-10-09T10:04:14;16.80;99.90
61016;DHT22;46902;52.920;6.536;2023-10-09T10:06:45;16.90;99.90
61016;DHT22;46902;52.920;6.536;2023-10-09T10:12:11;17.00;99.90
61016;DHT22;46902;52.920;6.536;2023-10-09T10:14:53;17.00;99.90
61016;DHT22;46902;52.920;6.536;2023-10-09T10:20:25;17.10;99.90
61016;DHT22;46902;52.920;6.536;2023-10-09T10:23:14;17.00;99.90
61016;DHT22;46902;52.920;6.536;2023-10-09T10:25:43;17.10;99.90
61016;DHT22;46902;52.920;6.536;2023-10-09T10:28:18;17.10;99.90
61016;DHT22;46902;52.920;6.536;2023-10-09T10:31:02;17.10;99.90
61016;DHT22;46902;52.920;6.536;2023-10-09T10:36:20;17.10;99.90
61016;DHT22;46902;52.920;6.536;2023-10-09T10:39:06;17.10;99.90
61016;DHT22;46902;52.920;6.536;2023-10-09T10:41:58;17.10;99.90
61016;DHT22;46902;52.920;6.536;2023-10-09T10:44:31;17.10;99.90
61016;DHT22;46902;52.920;6.536;2023-10-09T10:47:09;17.10;99.90
61016;DHT22;46902;52.920;6.536;2023-10-09T10:49:49;17.10;99.90
61016;DHT22;46902;52.920;6.536;2023-10-09T10:52:26;17.10;99.90
61016;DHT22;46902;52.920;6.536;2023-10-09T10:55:13;17.10;99.90
61016;DHT22;46902;52.920;6.536;2023-10-09T10:57:57;17.00;99.90
61016;DHT22;46902;52.920;6.536;2023-10-09T11:00:30;17.10;99.90
61016;DHT22;46902;52.920;6.536;2023-10-09T11:03:28;17.10;99.90
61016;DHT22;46902;52.920;6.536;2023-10-09T11:06:24;17.00;99.90
61016;DHT22;46902;52.920;6.536;2023-10-09T11:08:50;17.10;99.90
61016;DHT22;46902;52.920;6.536;2023-10-09T11:11:24;17.00;99.90
61016;DHT22;46902;52.920;6.536;2023-10-09T11:14:10;17.00;99.90
61016;DHT22;46902;52.920;6.536;2023-10-09T11:16:40;17.00;99.90
61016;DHT22;46902;52.920;6.536;2023-10-09T11:19:13;17.00;99.90
61016;DHT22;46902;52.920;6.536;2023-10-09T11:21:55;17.10;99.90
61016;DHT22;46902;52.920;6.536;2023-10-09T11:24:46;17.20;99.90
61016;DHT22;46902;52.920;6.536;2023-10-09T11:27:13;17.10;99.90
61016;DHT22;46902;52.920;6.536;2023-10-09T11:29:51;17.20;99.90
61016;DHT22;46902;52.920;6.536;2023-10-09T11:32:17;17.10;99.90
61016;DHT22;46902;52.920;6.536;2023-10-09T11:34:48;17.10;99.90
61016;DHT22;46902;52.920;6.536;2023-10-09T11:37:21;17.20;99.90
61016;DHT22;46902;52.920;6.536;2023-10-09T11:39:57;17.20;99.90
61016;DHT22;46902;52.920;6.536;2023-10-09T11:42:23;17.30;99.90
61016;DHT22;46902;52.920;6.536;2023-10-09T11:45:08;17.30;99.90
61016;DHT22;46902;52.920;6.536;2023-10-09T11:47:52;17.40;99.90
61016;DHT22;46902;52.920;6.536;2023-10-09T11:50:44;17.40;99.90
61016;DHT22;46902;52.920;6.536;2023-10-09T11:53:43;17.50;99.90
61016;DHT22;46902;52.920;6.536;2023-10-09T11:56:10;17.50;99.90
61016;DHT22;46902;52.920;6.536;2023-10-09T11:58:40;17.50;99.90
61016;DHT22;46902;52.920;6.536;2023-10-09T12:01:13;17.50;99.90
61016;DHT22;46902;52.920;6.536;2023-10-09T12:03:50;17.50;99.90
61016;DHT22;46902;52.920;6.536;2023-10-09T12:06:20;17.50;99.90
61016;DHT22;46902;52.920;6.536;2023-10-09T12:08:48;17.50;99.90
61016;DHT22;46902;52.920;6.536;2023-10-09T12:11:17;17.50;99.90
61016;DHT22;46902;52.920;6.536;2023-10-09T12:13:54;17.40;99.90
61016;DHT22;46902;52.920;6.536;2023-10-09T12:16:23;17.40;99.90
61016;DHT22;46902;52.920;6.536;2023-10-09T12:18:54;17.50;99.90
61016;DHT22;46902;52.920;6.536;2023-10-09T12:21:20;17.40;99.90
61016;DHT22;46902;52.920;6.536;2023-10-09T12:23:46;17.40;99.90
61016;DHT22;46902;52.920;6.536;2023-10-09T12:26:13;17.50;99.90
61016;DHT22;46902;52.920;6.536;2023-10-09T12:28:42;17.60;99.90
61016;DHT22;46902;52.920;6.536;2023-10-09T12:31:14;18.10;99.90
61016;DHT22;46902;52.920;6.536;2023-10-09T12:33:46;18.60;99.90
61016;DHT22;46902;52.920;6.536;2023-10-09T12:36:13;19.00;99.90
61016;DHT22;46902;52.920;6.536;2023-10-09T12:38:46;19.10;99.90
61016;DHT22;46902;52.920;6.536;2023-10-09T12:41:16;19.10;99.90
61016;DHT22;46902;52.920;6.536;2023-10-09T12:43:48;19.10;99.90
61016;DHT22;46902;52.920;6.536;2023-10-09T12:46:13;19.00;99.90
61016;DHT22;46902;52.920;6.536;2023-10-09T12:48:43;18.90;99.90
61016;DHT22;46902;52.920;6.536;2023-10-09T12:51:12;18.90;99.90
61016;DHT22;46902;52.920;6.536;2023-10-09T12:53:45;18.90;99.90
61016;DHT22;46902;52.920;6.536;2023-10-09T12:56:11;18.80;99.90
61016;DHT22;46902;52.920;6.536;2023-10-09T12:58:38;18.70;99.90
61016;DHT22;46902;52.920;6.536;2023-10-09T13:01:04;18.60;99.90
61016;DHT22;46902;52.920;6.536;2023-10-09T13:03:39;18.50;99.90
61016;DHT22;46902;52.920;6.536;2023-10-09T13:06:05;18.50;99.90
61016;DHT22;46902;52.920;6.536;2023-10-09T13:08:36;18.50;99.90
61016;DHT22;46902;52.920;6.536;2023-10-09T13:11:03;18.30;99.90
61016;DHT22;46902;52.920;6.536;2023-10-09T13:13:45;18.40;99.90
61016;DHT22;46902;52.920;6.536;2023-10-09T13:16:21;18.30;99.90
61016;DHT22;46902;52.920;6.536;2023-10-09T13:18:50;18.40;99.90
61016;DHT22;46902;52.920;6.536;2023-10-09T13:21:26;18.40;99.90
61016;DHT22;46902;52.920;6.536;2023-10-09T13:23:52;18.30;99.90
61016;DHT22;46902;52.920;6.536;2023-10-09T13:26:23;18.20;99.90
61016;DHT22;46902;52.920;6.536;2023-10-09T13:29:01;18.30;99.90
61016;DHT22;46902;52.920;6.536;2023-10-09T13:31:27;18.20;99.90
61016;DHT22;46902;52.920;6.536;2023-10-09T13:33:57;18.20;99.90
61016;DHT22;46902;52.920;6.536;2023-10-09T13:36:25;18.20;99.90
61016;DHT22;46902;52.920;6.536;2023-10-09T13:38:58;18.20;99.90
61016;DHT22;46902;52.920;6.536;2023-10-09T13:41:27;18.10;99.90
61016;DHT22;46902;52.920;6.536;2023-10-09T13:43:56;18.20;99.90
61016;DHT22;46902;52.920;6.536;2023-10-09T13:46:24;18.10;99.90
61016;DHT22;46902;52.920;6.536;2023-10-09T13:48:50;18.20;99.90
61016;DHT22;46902;52.920;6.536;2023-10-09T13:51:18;18.20;99.90
61016;DHT22;46902;52.920;6.536;2023-10-09T13:53:44;18.20;99.90
61016;DHT22;46902;52.920;6.536;2023-10-09T13:56:11;18.20;99.90
61016;DHT22;46902;52.920;6.536;2023-10-09T13:58:41;18.20;99.90
61016;DHT22;46902;52.920;6.536;2023-10-09T14:01:09;18.20;99.90
61016;DHT22;46902;52.920;6.536;2023-10-09T14:03:35;18.20;99.90
61016;DHT22;46902;52.920;6.536;2023-10-09T14:06:00;18.10;99.90
61016;DHT22;46902;52.920;6.536;2023-10-09T14:08:36;18.20;99.90
61016;DHT22;46902;52.920;6.536;2023-10-09T14:11:08;18.20;99.90
61016;DHT22;46902;52.920;6.536;2023-10-09T14:13:39;18.20;99.90
61016;DHT22;46902;52.920;6.536;2023-10-09T14:16:05;18.20;99.90
61016;DHT22;46902;52.920;6.536;2023-10-09T14:18:32;18.20;99.90
61016;DHT22;46902;52.920;6.536;2023-10-09T14:21:02;18.10;99.90
61016;DHT22;46902;52.920;6.536;2023-10-09T14:23:31;18.20;99.90
61016;DHT22;46902;52.920;6.536;2023-10-09T14:25:59;18.20;99.90
61016;DHT22;46902;52.920;6.536;2023-10-09T14:28:27;18.20;99.90
61016;DHT22;46902;52.920;6.536;2023-10-09T14:30:54;18.10;99.90
61016;DHT22;46902;52.920;6.536;2023-10-09T14:33:25;18.10;99.90
61016;DHT22;46902;52.920;6.536;2023-10-09T14:35:54;18.10;99.90
61016;DHT22;46902;52.920;6.536;2023-10-09T14:38:20;18.00;99.90
61016;DHT22;46902;52.920;6.536;2023-10-09T14:40:52;18.00;99.90
61016;DHT22;46902;52.920;6.536;2023-10-09T14:43:23;18.00;99.90
61016;DHT22;46902;52.920;6.536;2023-10-09T14:45:54;18.00;99.90
61016;DHT22;46902;52.920;6.536;2023-10-09T14:48:20;18.00;99.90
61016;DHT22;46902;52.920;6.536;2023-10-09T14:50:53;17.90;99.90
61016;DHT22;46902;52.920;6.536;2023-10-09T14:53:22;17.90;99.90
61016;DHT22;46902;52.920;6.536;2023-10-09T14:55:56;17.90;99.90
61016;DHT22;46902;52.920;6.536;2023-10-09T14:58:21;17.90;99.90
61016;DHT22;46902;52.920;6.536;2023-10-09T15:00:54;17.80;99.90
61016;DHT22;46902;52.920;6.536;2023-10-09T15:03:20;17.90;99.90
61016;DHT22;46902;52.920;6.536;2023-10-09T15:05:46;17.80;99.90
61016;DHT22;46902;52.920;6.536;2023-10-09T15:08:11;17.80;99.90
61016;DHT22;46902;52.920;6.536;2023-10-09T15:10:51;17.80;99.90
61016;DHT22;46902;52.920;6.536;2023-10-09T15:13:22;17.70;99.90
61016;DHT22;46902;52.920;6.536;2023-10-09T15:15:54;17.70;99.90
61016;DHT22;46902;52.920;6.536;2023-10-09T15:18:21;17.70;99.90
61016;DHT22;46902;52.920;6.536;2023-10-09T15:20:47;17.60;99.90
61016;DHT22;46902;52.920;6.536;2023-10-09T15:23:13;17.70;99.90
61016;DHT22;46902;52.920;6.536;2023-10-09T15:25:39;17.60;99.90
61016;DHT22;46902;52.920;6.536;2023-10-09T15:28:08;17.60;99.90
61016;DHT22;46902;52.920;6.536;2023-10-09T15:30:35;17.70;99.90
61016;DHT22;46902;52.920;6.536;2023-10-09T15:33:04;17.70;99.90
61016;DHT22;46902;52.920;6.536;2023-10-09T15:35:31;17.70;99.90
61016;DHT22;46902;52.920;6.536;2023-10-09T15:38:03;17.70;99.90
61016;DHT22;46902;52.920;6.536;2023-10-09T15:40:30;17.70;99.90
61016;DHT22;46902;52.920;6.536;2023-10-09T15:42:59;17.70;99.90
61016;DHT22;46902;52.920;6.536;2023-10-09T15:45:25;17.70;99.90
61016;DHT22;46902;52.920;6.536;2023-10-09T15:47:54;17.60;99.90
61016;DHT22;46902;52.920;6.536;2023-10-09T15:50:21;17.60;99.90
61016;DHT22;46902;52.920;6.536;2023-10-09T15:52:53;17.60;99.90
61016;DHT22;46902;52.920;6.536;2023-10-09T15:55:20;17.60;99.90
61016;DHT22;46902;52.920;6.536;2023-10-09T15:57:46;17.60;99.90
61016;DHT22;46902;52.920;6.536;2023-10-09T16:00:14;17.60;99.90
61016;DHT22;46902;52.920;6.536;2023-10-09T16:02:43;17.60;99.90
61016;DHT22;46902;52.920;6.536;2023-10-09T16:05:09;17.50;99.90
61016;DHT22;46902;52.920;6.536;2023-10-09T16:07:39;17.50;99.90
61016;DHT22;46902;52.920;6.536;2023-10-09T16:10:06;17.50;99.90
61016;DHT22;46902;52.920;6.536;2023-10-09T16:12:37;17.50;99.90
61016;DHT22;46902;52.920;6.536;2023-10-09T16:15:03;17.50;99.90
61016;DHT22;46902;52.920;6.536;2023-10-09T16:17:31;17.40;99.90
61016;DHT22;46902;52.920;6.536;2023-10-09T16:19:58;17.30;99.90
61016;DHT22;46902;52.920;6.536;2023-10-09T16:22:23;17.40;99.90